Time;durP1;ratioP1;P1;durP2;ratioP2;P2;SDS_P1;SDS_P2;PMS_P1;PMS_P2;Temp;Humidity;BMP_temperature;BMP_pressure;BME280_temperature;BME280_humidity;BME280_pressure;Samples;Min_cycle;Max_cycle;Signal;HPM_P1;HPM_P2
2024/02/10 00:12:27;;;;;;;30.63;12.47;;;;;;;6.62;100.00;99338.63;31264081;28;20048;-78
2024/02/10 00:27:29;;;;;;;36.70;16.73;;;;;;;7.36;100.00;99344.69;31267305;28;20088;-85
2024/02/10 00:42:31;;;;;;;36.43;15.43;;;;;;;7.45;100.00;99334.09;31278482;28;20062;-83
2024/02/10 00:57:34;;;;;;;40.80;17.50;;;;;;;6.95;100.00;99313.44;31279239;28;20040;-83
2024/02/10 01:12:36;;;;;;;39.90;18.97;;;;;;;7.33;100.00;99315.81;31282429;28;20046;-84
2024/02/10 01:27:38;;;;;;;31.30;16.67;;;;;;;7.17;100.00;99298.38;31263088;28;20053;-83
2024/02/10 01:42:40;;;;;;;30.23;13.57;;;;;;;6.95;100.00;99301.88;31274667;28;20507;-83
2024/02/10 01:57:52;;;;;;;32.47;17.07;;;;;;;7.39;100.00;99292.56;31264227;28;20117;-84
2024/02/10 02:12:54;;;;;;;36.53;16.30;;;;;;;7.10;100.00;99336.28;31262455;28;20415;-82
2024/02/10 02:27:58;;;;;;;35.60;15.33;;;;;;;7.44;100.00;99359.59;31254654;28;20053;-83
2024/02/10 02:43:02;;;;;;;53.53;20.53;;;;;;;7.66;100.00;99336.38;31253370;28;20119;-83
2024/02/10 02:58:12;;;;;;;48.50;18.33;;;;;;;7.70;100.00;99342.50;31270732;28;20442;-83
2024/02/10 03:13:14;;;;;;;39.97;14.63;;;;;;;7.52;100.00;99333.97;31252538;28;20059;-84
2024/02/10 03:28:16;;;;;;;36.53;11.63;;;;;;;7.41;100.00;99323.38;31290290;28;20085;-84
2024/02/10 03:43:26;;;;;;;39.97;13.27;;;;;;;7.44;100.00;99329.88;31291774;28;20052;-84
2024/02/10 03:58:29;;;;;;;36.17;13.17;;;;;;;7.32;100.00;99314.31;31296545;28;20072;-84
2024/02/10 04:13:31;;;;;;;47.90;13.97;;;;;;;6.93;100.00;99306.91;31300614;28;20061;-84
2024/02/10 04:28:36;;;;;;;75.83;16.93;;;;;;;6.99;100.00;99308.72;31285928;28;20162;-83
2024/02/10 04:43:38;;;;;;;79.70;18.37;;;;;;;7.01;100.00;99311.03;31271575;28;20479;-84
2024/02/10 04:58:40;;;;;;;115.97;18.17;;;;;;;6.93;100.00;99310.38;31272923;28;20462;-84
2024/02/10 05:13:42;;;;;;;108.17;16.37;;;;;;;6.70;100.00;99323.88;31275510;28;20514;-84
2024/02/10 05:28:46;;;;;;;116.73;16.83;;;;;;;6.96;100.00;99314.94;31275404;28;20083;-85
2024/02/10 05:43:48;;;;;;;133.33;19.03;;;;;;;6.80;100.00;99328.34;31277511;28;20042;-84
2024/02/10 05:58:50;;;;;;;113.80;16.37;;;;;;;7.43;100.00;99323.72;31265298;28;20049;-83
2024/02/10 06:13:53;;;;;;;76.27;16.67;;;;;;;7.54;100.00;99355.94;31277569;28;20056;-84
2024/02/10 06:28:58;;;;;;;77.60;17.23;;;;;;;7.66;100.00;99368.81;31260261;28;20049;-85
2024/02/10 06:44:01;;;;;;;50.17;13.97;;;;;;;7.79;100.00;99374.38;31282028;28;20052;-84
2024/02/10 06:59:03;;;;;;;58.67;14.53;;;;;;;8.08;100.00;99382.63;31281865;28;20065;-84
2024/02/10 07:14:08;;;;;;;129.93;18.13;;;;;;;8.15;100.00;99404.13;31281623;28;20053;-85
2024/02/10 07:29:11;;;;;;;78.50;16.60;;;;;;;8.36;100.00;99409.09;31269429;28;20463;-86
2024/02/10 07:44:14;;;;;;;155.77;17.87;;;;;;;8.48;100.00;99411.16;31272168;28;20083;-85
2024/02/10 07:59:16;;;;;;;90.60;17.70;;;;;;;8.81;100.00;99417.34;31269071;28;20056;-83
2024/02/10 08:14:20;;;;;;;117.13;15.70;;;;;;;9.22;100.00;99422.16;31306177;28;20037;-83
2024/02/10 08:29:23;;;;;;;57.30;15.13;;;;;;;9.65;100.00;99412.19;31305413;28;20053;-86
2024/02/10 08:44:27;;;;;;;79.73;15.50;;;;;;;10.21;100.00;99407.88;31326419;28;20584;-83
2024/02/10 08:59:33;;;;;;;64.93;14.93;;;;;;;10.00;100.00;99413.13;31285141;28;20045;-84
2024/02/10 09:14:35;;;;;;;99.50;15.60;;;;;;;10.06;100.00;99406.75;31291790;28;20049;-79
2024/02/10 09:29:38;;;;;;;60.60;15.17;;;;;;;10.35;100.00;99416.81;31304856;28;20049;-80
2024/02/10 09:44:41;;;;;;;49.07;12.77;;;;;;;10.68;100.00;99422.78;31265821;28;20049;-83
2024/02/10 09:59:44;;;;;;;33.23;12.67;;;;;;;10.81;100.00;99416.16;31269465;28;20046;-83
2024/02/10 10:14:47;;;;;;;49.60;13.90;;;;;;;10.86;100.00;99406.72;31280890;28;20118;-83
2024/02/10 10:29:49;;;;;;;39.93;13.97;;;;;;;10.51;100.00;99392.28;31247134;28;20140;-79
2024/02/10 10:44:51;;;;;;;34.93;13.77;;;;;;;10.68;100.00;99399.09;31236684;28;20049;-80
2024/02/10 11:00:15;;;;;;;37.00;13.50;;;;;;;12.15;100.00;99420.91;31240530;28;20069;-78
2024/02/10 11:15:20;;;;;;;32.10;13.10;;;;;;;12.36;100.00;99405.75;31250881;28;20499;-83
2024/02/10 11:30:23;;;;;;;24.83;9.77;;;;;;;12.27;100.00;99417.38;31241363;28;20064;-79
2024/02/10 11:45:26;;;;;;;21.20;10.13;;;;;;;12.11;100.00;99411.38;31285865;28;20491;-79
2024/02/10 12:00:32;;;;;;;26.63;12.37;;;;;;;11.97;100.00;99409.19;31267116;28;20060;-81
2024/02/10 12:15:35;;;;;;;31.53;12.50;;;;;;;11.77;100.00;99426.56;31270090;28;20403;-79
2024/02/10 12:30:37;;;;;;;33.13;11.43;;;;;;;11.63;100.00;99429.75;31254964;28;20069;-78
2024/02/10 12:45:47;;;;;;;38.37;13.00;;;;;;;11.72;100.00;99440.69;31250457;28;20061;-78
2024/02/10 13:00:49;;;;;;;37.00;12.43;;;;;;;11.71;100.00;99452.03;31291272;28;21349;-86
2024/02/10 13:15:52;;;;;;;30.20;12.27;;;;;;;11.78;100.00;99463.44;31290688;28;20052;-82
2024/02/10 13:30:54;;;;;;;33.57;12.73;;;;;;;11.87;100.00;99449.91;31289669;28;20045;-82
2024/02/10 14:01:18;;;;;;;43.33;15.50;;;;;;;11.71;100.00;99428.31;31281357;28;20057;-82
2024/02/10 14:16:27;;;;;;;47.33;17.30;;;;;;;11.70;100.00;99424.06;31289238;28;20096;-82
2024/02/10 14:31:33;;;;;;;54.70;20.23;;;;;;;11.70;100.00;99429.50;31254488;28;20053;-83
2024/02/10 14:46:42;;;;;;;49.43;20.57;;;;;;;11.95;100.00;99423.97;31282124;28;20056;-82
2024/02/10 15:01:48;;;;;;;39.07;19.20;;;;;;;11.97;100.00;99430.94;31274760;28;20054;-84
2024/02/10 15:16:51;;;;;;;67.30;26.55;;;;;;;11.97;100.00;99437.13;31287844;28;20053;-85
2024/02/10 15:31:56;;;;;;;50.97;21.03;;;;;;;11.88;100.00;99451.41;31289810;28;20112;-83
2024/02/10 15:47:03;;;;;;;45.10;20.87;;;;;;;11.98;100.00;99443.34;31300370;28;20042;-84
2024/02/10 16:02:09;;;;;;;45.07;18.93;;;;;;;12.12;100.00;99450.97;31285894;28;20143;-86
2024/02/10 16:17:14;;;;;;;;;;;;;;;12.66;100.00;99512.38;31307907;28;20044;-89
2024/02/10 16:32:17;;;;;;;36.13;16.77;;;;;;;12.49;100.00;99504.44;31303786;28;19920;-88
2024/02/10 16:47:19;;;;;;;33.53;17.10;;;;;;;12.47;100.00;99485.06;31375799;28;20059;-88
2024/02/10 17:02:21;;;;;;;28.50;15.60;;;;;;;12.47;100.00;99474.19;31342118;28;20140;-83
2024/02/10 17:17:27;;;;;;;36.13;14.87;;;;;;;12.46;100.00;99486.25;31333682;28;20126;-89
2024/02/10 17:32:32;;;;;;;33.03;13.47;;;;;;;12.37;100.00;99501.78;31303227;28;20052;-86
2024/02/10 17:47:35;;;;;;;24.10;10.93;;;;;;;12.40;100.00;99490.75;31299013;28;20079;-90
2024/02/10 18:02:38;;;;;;;20.80;11.53;;;;;;;12.51;100.00;99490.38;31342352;28;20053;-89
2024/02/10 18:17:45;;;;;;;26.10;11.27;;;;;;;12.62;100.00;99513.25;31276247;28;20073;-87
2024/02/10 18:32:48;;;;;;;28.77;11.00;;;;;;;12.85;100.00;99481.28;31351873;28;20115;-88
2024/02/10 18:47:52;;;;;;;46.87;21.17;;;;;;;12.64;100.00;99467.28;31318482;28;20053;-88
2024/02/10 19:02:55;;;;;;;31.33;12.63;;;;;;;12.76;100.00;99525.56;31329297;28;20051;-89
2024/02/10 19:17:57;;;;;;;32.67;10.43;;;;;;;12.58;100.00;99539.88;31338888;28;20056;-86
2024/02/10 19:33:03;;;;;;;27.73;12.07;;;;;;;12.55;100.00;99535.31;31295350;28;20061;-81
2024/02/10 19:48:06;;;;;;;29.10;11.43;;;;;;;12.34;100.00;99546.97;31249716;28;20045;-77
2024/02/10 20:03:09;;;;;;;27.13;11.03;;;;;;;12.20;100.00;99525.72;31273720;28;20054;-80
2024/02/10 20:18:12;;;;;;;30.37;10.50;;;;;;;12.35;100.00;99532.16;31261161;28;20491;-80
2024/02/10 20:33:14;;;;;;;27.53;9.73;;;;;;;12.17;100.00;99527.34;31270481;28;20144;-80
2024/02/10 20:48:16;;;;;;;27.23;11.40;;;;;;;12.14;100.00;99533.69;31253789;28;20085;-78
2024/02/10 21:03:22;;;;;;;29.43;12.13;;;;;;;12.24;100.00;99548.13;31263770;28;20053;-78
2024/02/10 21:18:25;;;;;;;47.78;12.90;;;;;;;12.17;100.00;99597.34;31253207;28;20037;-80
2024/02/10 21:33:28;;;;;;;40.77;15.73;;;;;;;12.02;100.00;99599.78;31277832;28;20111;-79
2024/02/10 21:48:30;;;;;;;45.73;20.43;;;;;;;11.80;100.00;99586.13;31242667;28;20510;-78
2024/02/10 22:03:32;;;;;;;39.97;15.57;;;;;;;11.64;100.00;99591.66;31253673;28;20049;-80
2024/02/10 22:18:36;;;;;;;38.93;15.90;;;;;;;11.71;100.00;99588.72;31255760;28;20045;-80
2024/02/10 22:33:38;;;;;;;45.33;16.40;;;;;;;11.61;100.00;99578.94;31275022;28;20045;-87
2024/02/10 22:48:41;;;;;;;48.03;16.80;;;;;;;11.57;100.00;99572.88;31279359;28;20141;-82
2024/02/10 23:03:45;;;;;;;46.53;14.77;;;;;;;11.60;100.00;99580.13;31261120;28;20507;-79
2024/02/10 23:18:49;;;;;;;26.40;11.23;;;;;;;11.57;100.00;99551.13;31259783;28;20084;-80
2024/02/10 23:33:51;;;;;;;42.23;14.70;;;;;;;11.57;100.00;99559.28;31264957;28;20264;-81
2024/02/10 23:48:53;;;;;;;29.73;13.10;;;;;;;11.46;100.00;99559.63;31294576;28;20049;-81
